Pagrindinis puslapis
METAR-TAF:

METAR-TAF

Oro uostai :

Mauricijus, Mauricijus

platuma: 20-26S, ilguma: 057-40E, Aukštis: 55 m

Dabartinis oras

Ataskaita buvo paskelbta 15 minutes, ne 05:00 UTC
Vėjas 14 kt iš Rytų
Temperatūra 26°C
Drėgmė 70%
Slėgis 1021 hPa
Matomumas 10 km arba daugiau
Išsisklaidę debesys ne aukštis 1600 ft

METAR: FIMP 290500Z 08014KT 9999 SCT016 26/20 Q1021

Laikas: 09:15 (05:15 UTC)

Prognozė

Ataskaita buvo paskelbta 5 valandos ir 30 minutes, ne 23:45 UTC
Prognozė galioja nuo 29 metu 00 UTC su 30 metu 06 UTC
Vėjas 13 kt iš Rytų su gūsio iki 23 kt
Matomumas 10 km arba daugiau
Išsisklaidę debesys ne aukštis 1700 ft

TAF: FIMP 282345Z 2900/3006 09013G23KT 9999 SCT017

Orai ataskaitas ir orų prognozės (METAR, TAF).

turimą stotys yra geltonos ir raudonos taškus žemėlapyje.

Perkelti pele per norėdami pamatyti stoties vardą.

Tada spustelėkite, norėdami matyti oro stebėjimo ir prognozės.

Norėdami pakeisti žemėlapį: spustelėkite ant žalios mygtukų su juodo kryžiaus žemyn,; žalią mygtuką su brūkšneliu, jei norite nutolinti; arba žalių rodyklių gretimoms žemėlapius.


METAR-TAF: